Terminal Aerodrome Forecast
Issued by NWS Duluth, MN

Home | Current Version | Previous Version | Text Only | Print | Product List | Glossary On
Versions: 1 2 3 4 5 6 7 8 9 10 11 12 13 14 15
000
FTUS43 KDLH 110912 AAA
TAFINL
TAF AMD
KINL 110912Z 1109/1206 00000KT P6SM BKN090
     FM111500 26004KT P6SM BKN050 OVC120
     FM112000 28007KT P6SM VCSH BKN030 OVC050
     FM120100 30006KT P6SM BKN040 OVC080=

USA.gov is the U.S. government's official web portal to all federal, state and local government web resources and services.